createdAt,value
2023-05-15T00:00:17.247Z,16.0
2023-05-15T00:05:23.674Z,16.0
2023-05-15T00:10:29.694Z,17.0
2023-05-15T00:15:35.896Z,17.0
2023-05-15T00:20:42.102Z,17.0
2023-05-15T00:25:48.324Z,17.0
2023-05-15T00:30:54.535Z,17.0
2023-05-15T00:36:00.736Z,17.0
2023-05-15T00:41:06.983Z,17.0
2023-05-15T00:46:13.190Z,17.0
2023-05-15T00:51:19.395Z,16.0
2023-05-15T00:56:25.702Z,16.0
2023-05-15T01:01:31.863Z,16.0
2023-05-15T01:06:38.040Z,15.5
2023-05-15T01:11:44.255Z,16.0
2023-05-15T01:16:50.482Z,15.5
2023-05-15T01:21:56.687Z,16.0
2023-05-15T01:27:02.894Z,16.0
2023-05-15T01:32:09.217Z,17.0
2023-05-15T01:37:15.320Z,17.0
2023-05-15T01:42:21.542Z,17.0
2023-05-15T01:47:27.856Z,18.0
2023-05-15T01:52:33.962Z,18.0
2023-05-15T01:57:39.186Z,18.0
2023-05-15T02:02:45.478Z,19.0
2023-05-15T02:07:51.614Z,19.0
2023-05-15T02:12:57.828Z,19.0
2023-05-15T02:18:04.148Z,19.0
2023-05-15T02:23:10.260Z,20.0
2023-05-15T02:28:15.483Z,20.0
2023-05-15T02:33:21.706Z,21.0
2023-05-15T02:38:27.914Z,21.0
2023-05-15T02:43:34.136Z,23.0
2023-05-15T02:48:40.341Z,25.0
2023-05-15T02:53:46.571Z,24.0
2023-05-15T02:58:52.762Z,24.0
2023-05-15T03:09:05.195Z,26.0
2023-05-15T03:14:11.395Z,26.0
2023-05-15T03:19:17.638Z,27.0
2023-05-15T03:24:23.825Z,28.5
2023-05-15T03:29:30.036Z,32.0
2023-05-15T03:34:36.235Z,34.0
2023-05-15T03:39:42.448Z,35.0
2023-05-15T03:44:48.677Z,36.0
2023-05-15T03:49:54.872Z,37.0
2023-05-15T03:55:01.083Z,37.0
2023-05-15T04:00:07.286Z,36.5
2023-05-15T04:05:13.576Z,34.5
2023-05-15T04:10:19.708Z,36.0
2023-05-15T04:15:26.188Z,35.0
2023-05-15T04:20:32.124Z,36.0
2023-05-15T04:25:38.341Z,37.0
2023-05-15T04:30:44.556Z,37.0
2023-05-15T04:35:50.755Z,37.0
2023-05-15T04:40:56.965Z,36.0
2023-05-15T04:46:03.178Z,35.0
2023-05-15T04:51:09.397Z,35.0
2023-05-15T04:56:15.591Z,35.5
2023-05-15T05:01:21.870Z,34.0
2023-05-15T05:06:29.797Z,35.0
2023-05-15T05:11:34.223Z,33.0
2023-05-15T05:16:40.426Z,33.0
2023-05-15T05:21:46.654Z,38.5
2023-05-15T05:26:52.951Z,38.5
2023-05-15T05:31:59.102Z,36.0
2023-05-15T05:37:05.287Z,36.0
2023-05-15T05:42:11.494Z,35.0
2023-05-15T05:47:17.735Z,34.0
2023-05-15T05:52:23.908Z,35.0
2023-05-15T05:57:30.125Z,34.0
2023-05-15T06:02:36.483Z,35.0
2023-05-15T06:07:42.548Z,35.0
2023-05-15T06:12:48.763Z,34.0
2023-05-15T06:17:55.042Z,33.0
2023-05-15T06:23:01.199Z,32.0
2023-05-15T06:33:13.638Z,31.0
2023-05-15T06:38:19.845Z,29.5
2023-05-15T06:43:26.052Z,29.0
2023-05-15T06:48:32.265Z,29.0
2023-05-15T06:53:38.475Z,28.0
2023-05-15T06:58:44.695Z,31.0
2023-05-15T07:03:50.893Z,30.0
2023-05-15T07:08:57.111Z,29.0
2023-05-15T07:14:03.308Z,30.0
2023-05-15T07:19:09.622Z,32.0
2023-05-15T07:24:15.731Z,33.0
2023-05-15T07:29:21.923Z,32.0
2023-05-15T07:34:28.157Z,32.0
2023-05-15T07:39:34.352Z,32.0
2023-05-15T07:44:42.496Z,31.0
2023-05-15T07:49:46.769Z,29.0
2023-05-15T07:54:52.987Z,28.0
2023-05-15T07:59:58.207Z,28.0
2023-05-15T08:05:04.406Z,26.0
2023-05-15T08:10:10.609Z,25.0
2023-05-15T08:15:16.909Z,24.0
2023-05-15T08:20:23.076Z,25.0
2023-05-15T08:25:29.234Z,21.0
2023-05-15T08:30:35.442Z,20.0
2023-05-15T08:35:41.673Z,18.0
2023-05-15T08:40:47.855Z,18.0
2023-05-15T08:45:54.077Z,17.0
2023-05-15T08:51:00.275Z,18.0
2023-05-15T08:56:06.484Z,18.0
2023-05-15T09:01:12.871Z,19.0
2023-05-15T09:06:18.919Z,18.0
2023-05-15T09:11:25.111Z,21.5
2023-05-15T09:16:31.392Z,22.0
2023-05-15T09:21:37.553Z,21.0
2023-05-15T09:26:43.739Z,23.0
2023-05-15T09:31:50.008Z,22.0
2023-05-15T09:36:56.156Z,23.0
2023-05-15T09:42:02.367Z,23.0
2023-05-15T09:47:08.665Z,22.0
2023-05-15T09:52:14.783Z,22.0
2023-05-15T09:57:21.021Z,20.0
2023-05-15T10:02:27.200Z,22.0
2023-05-15T10:07:33.403Z,22.0
2023-05-15T10:12:39.616Z,23.0
2023-05-15T10:17:45.866Z,23.0
2023-05-15T10:22:52.032Z,24.0
2023-05-15T10:27:58.238Z,23.0
2023-05-15T10:33:04.578Z,18.0
2023-05-15T10:38:10.661Z,18.0
2023-05-15T10:43:16.865Z,19.0
2023-05-15T10:48:23.083Z,19.5
2023-05-15T10:53:29.293Z,20.5
2023-05-15T10:58:35.494Z,21.0
2023-05-15T11:03:48.704Z,22.0
2023-05-15T11:08:47.908Z,21.0
2023-05-15T11:19:00.385Z,22.0
2023-05-15T11:29:12.760Z,22.0
2023-05-15T11:34:18.962Z,22.0
2023-05-15T11:39:25.163Z,22.0
2023-05-15T11:44:31.374Z,21.0
2023-05-15T11:49:37.591Z,21.0
2023-05-15T11:54:43.792Z,21.5
2023-05-15T11:59:49.996Z,22.0
2023-05-15T12:04:56.246Z,22.0
2023-05-15T12:10:02.429Z,21.0
2023-05-15T12:15:08.616Z,21.0
2023-05-15T12:20:14.839Z,21.5
2023-05-15T12:25:21.059Z,24.0
2023-05-15T12:30:27.401Z,24.0
2023-05-15T12:35:33.460Z,24.0
2023-05-15T12:40:39.674Z,26.0
2023-05-15T12:45:45.945Z,27.0
2023-05-15T12:50:52.104Z,29.0
2023-05-15T12:55:58.304Z,28.0
2023-05-15T13:01:04.603Z,28.0
2023-05-15T13:06:10.712Z,30.0
2023-05-15T13:11:16.920Z,28.0
2023-05-15T13:16:23.171Z,30.0
2023-05-15T13:21:29.353Z,30.0
2023-05-15T13:26:35.539Z,31.0
2023-05-15T13:31:40.815Z,31.0
2023-05-15T13:36:46.961Z,28.0
2023-05-15T13:41:53.182Z,27.0
2023-05-15T13:46:59.417Z,29.0
2023-05-15T13:52:05.594Z,30.0
2023-05-15T13:57:11.802Z,29.0
2023-05-15T14:02:18.034Z,31.0
2023-05-15T14:07:24.229Z,30.0
2023-05-15T14:12:30.439Z,30.0
2023-05-15T14:17:36.647Z,29.0
2023-05-15T14:22:42.853Z,28.0
2023-05-15T14:27:49.059Z,27.0
2023-05-15T14:32:55.314Z,25.0
2023-05-15T14:38:01.495Z,21.0
2023-05-15T14:43:07.689Z,18.5
2023-05-15T14:48:13.893Z,17.0
2023-05-15T14:53:20.106Z,14.0
2023-05-15T14:58:26.301Z,12.0
2023-05-15T15:03:34.146Z,10.0
2023-05-15T15:08:38.723Z,9.0
2023-05-15T15:13:44.934Z,10.0
2023-05-15T15:18:51.195Z,11.0
2023-05-15T15:23:57.350Z,12.0
2023-05-15T15:29:03.569Z,12.0
2023-05-15T15:34:09.762Z,11.0
2023-05-15T15:39:16.282Z,11.0
2023-05-15T15:44:22.186Z,9.0
2023-05-15T15:49:28.395Z,7.0
2023-05-15T15:54:34.600Z,7.0
2023-05-15T15:59:40.813Z,6.0
2023-05-15T16:04:47.029Z,6.0
2023-05-15T16:10:03.648Z,5.0
2023-05-15T16:15:06.863Z,5.0
2023-05-15T16:20:05.675Z,5.0
2023-05-15T16:25:11.853Z,5.0
2023-05-15T16:30:18.069Z,5.0
2023-05-15T16:35:24.268Z,4.0
2023-05-15T16:40:30.482Z,4.0
2023-05-15T16:45:36.677Z,3.0
2023-05-15T16:50:42.900Z,3.0
2023-05-15T16:55:49.108Z,3.0
2023-05-15T17:00:55.319Z,3.0
2023-05-15T17:06:01.520Z,3.0
2023-05-15T17:11:07.730Z,3.0
2023-05-15T17:16:13.963Z,3.0
2023-05-15T17:21:20.138Z,3.0
2023-05-15T17:26:26.351Z,3.0
2023-05-15T17:31:32.584Z,3.0
2023-05-15T17:36:38.772Z,3.0
2023-05-15T17:41:44.978Z,3.0
2023-05-15T17:46:51.190Z,4.0
2023-05-15T17:51:57.390Z,3.0
2023-05-15T17:57:03.592Z,3.0
2023-05-15T18:02:09.820Z,3.0
2023-05-15T18:07:16.026Z,3.0
2023-05-15T18:12:22.219Z,4.0
2023-05-15T18:17:28.466Z,4.0
2023-05-15T18:22:34.647Z,4.0
2023-05-15T18:27:40.841Z,4.0
2023-05-15T18:32:47.114Z,4.0
2023-05-15T18:37:53.274Z,4.0
2023-05-15T18:42:59.470Z,4.0
2023-05-15T18:48:05.722Z,5.0
2023-05-15T18:53:11.991Z,5.0
2023-05-15T18:58:18.095Z,5.0
2023-05-15T19:03:23.340Z,5.0
2023-05-15T19:08:29.577Z,5.0
2023-05-15T19:13:35.745Z,4.0
2023-05-15T19:18:42.010Z,4.0
2023-05-15T19:23:48.155Z,3.0
2023-05-15T19:28:54.356Z,3.0
2023-05-15T19:33:59.627Z,3.0
2023-05-15T19:39:05.797Z,3.0
2023-05-15T19:44:12.001Z,3.0
2023-05-15T19:49:18.218Z,3.0
2023-05-15T19:54:24.420Z,3.0
2023-05-15T19:59:30.638Z,3.0
2023-05-15T20:04:36.859Z,3.0
2023-05-15T20:09:43.076Z,3.0
2023-05-15T20:14:49.290Z,3.0
2023-05-15T20:19:55.510Z,3.0
2023-05-15T20:25:01.749Z,3.0
2023-05-15T20:30:07.949Z,2.0
2023-05-15T20:35:14.137Z,3.0
2023-05-15T20:40:20.366Z,2.0
2023-05-15T20:45:26.618Z,3.0
2023-05-15T20:50:32.814Z,2.0
2023-05-15T20:55:39.005Z,2.0
2023-05-15T21:00:45.267Z,2.0
2023-05-15T21:05:51.439Z,2.0
2023-05-15T21:10:57.658Z,1.0
2023-05-15T21:16:03.873Z,1.0
2023-05-15T21:21:10.080Z,1.0
2023-05-15T21:26:16.284Z,0.0
2023-05-15T21:31:22.559Z,0.0
2023-05-15T21:36:28.719Z,0.0
2023-05-15T21:41:34.932Z,0.0
2023-05-15T21:46:41.155Z,0.0
2023-05-15T21:51:47.354Z,0.0
2023-05-15T21:56:53.608Z,1.0
2023-05-15T22:01:59.859Z,1.0
2023-05-15T22:07:05.992Z,1.0
2023-05-15T22:12:12.203Z,1.0
2023-05-15T22:17:18.419Z,1.0
2023-05-15T22:22:24.615Z,1.0
2023-05-15T22:27:30.828Z,1.0
2023-05-15T22:32:37.111Z,1.0
2023-05-15T22:37:43.251Z,2.0
2023-05-15T22:42:49.446Z,1.0
2023-05-15T22:47:55.720Z,2.0
2023-05-15T22:53:01.868Z,2.0
2023-05-15T22:58:08.082Z,2.0
2023-05-15T23:03:14.370Z,2.0
2023-05-15T23:08:20.496Z,2.0
2023-05-15T23:13:26.709Z,2.0
2023-05-15T23:18:32.943Z,2.0
2023-05-15T23:23:39.126Z,2.0
2023-05-15T23:28:45.326Z,2.0
2023-05-15T23:33:51.534Z,2.0
2023-05-15T23:38:57.737Z,2.0
2023-05-15T23:44:03.958Z,2.0
2023-05-15T23:49:10.169Z,2.0
2023-05-15T23:54:16.364Z,2.0
2023-05-15T23:59:22.595Z,2.0
